Перейти к содержимому


Фотография
- - - - -

ActiveSky 2002 проблема.


Тема находится в архиве. Это значит, что в нее нельзя ответить.
Для разархивирования этой темы отправьте сообщение с указанием URL топика
В этой теме нет ответов

#1 ytka

ytka

    i see

  • Members
  • PipPipPipPip
  • 450 сообщений
    Reputation: 1

Отправлено 23 June 2003 - 02:48

Загружаю АктивСкай и альтиметр показывает мне высоту 29.999 на земле, хотя "UHSS 222200Z 16002MPS 6000 OVC006 12/11 Q1012 NOSIG MT OBSC QFE757".

как решить эту проблему ?